createdAt,value
2019-04-27T00:01:00.528Z,2.15
2019-04-27T00:03:53.984Z,2.20
2019-04-27T00:06:28.842Z,2.10
2019-04-27T00:09:11.628Z,2.20
2019-04-27T00:11:48.963Z,2.10
2019-04-27T00:14:23.963Z,2.08
2019-04-27T00:17:15.283Z,2.00
2019-04-27T00:20:04.958Z,1.82
2019-04-27T00:22:45.503Z,2.02
2019-04-27T00:25:19.446Z,1.80
2019-04-27T00:27:53.574Z,2.22
2019-04-27T00:30:27.305Z,2.10
2019-04-27T00:33:01.237Z,1.82
2019-04-27T00:35:44.392Z,2.00
2019-04-27T00:38:28.326Z,1.80
2019-04-27T00:41:08.561Z,2.12
2019-04-27T00:43:42.722Z,1.70
2019-04-27T00:46:18.111Z,2.25
2019-04-27T00:48:53.427Z,1.80
2019-04-27T00:51:27.212Z,2.05
2019-04-27T00:54:01.017Z,1.90
2019-04-27T00:56:50.149Z,1.67
2019-04-27T00:59:53.023Z,1.92
2019-04-27T01:02:45.630Z,2.02
2019-04-27T01:05:24.355Z,2.10
2019-04-27T01:07:58.106Z,2.15
2019-04-27T01:10:33.487Z,2.22
2019-04-27T01:13:08.204Z,2.20
2019-04-27T01:15:42.990Z,2.10
2019-04-27T01:18:16.815Z,2.10
2019-04-27T01:20:50.513Z,2.35
2019-04-27T01:23:24.261Z,2.08
2019-04-27T01:26:19.829Z,2.27
2019-04-27T01:28:59.415Z,2.05
2019-04-27T01:31:34.267Z,2.30
2019-04-27T01:34:09.259Z,2.17
2019-04-27T01:36:43.061Z,2.15
2019-04-27T01:39:18.882Z,2.22
2019-04-27T01:41:52.801Z,2.30
2019-04-27T01:44:26.469Z,2.05
2019-04-27T01:47:00.278Z,2.65
2019-04-27T01:49:34.169Z,2.12
2019-04-27T01:52:09.652Z,2.00
2019-04-27T01:54:43.732Z,2.10
2019-04-27T01:57:19.258Z,1.92
2019-04-27T01:59:53.006Z,2.20
2019-04-27T02:02:45.190Z,2.10
2019-04-27T02:05:36.252Z,2.02
2019-04-27T02:08:11.444Z,2.30
2019-04-27T02:10:45.202Z,2.27
2019-04-27T02:13:19.080Z,2.30
2019-04-27T02:15:53.175Z,2.22
2019-04-27T02:18:36.938Z,2.70
2019-04-27T02:21:02.736Z,2.10
2019-04-27T02:23:36.491Z,2.10
2019-04-27T02:26:10.180Z,2.40
2019-04-27T02:29:01.535Z,2.25
2019-04-27T02:31:54.183Z,2.45
2019-04-27T02:34:32.303Z,2.47
2019-04-27T02:37:06.244Z,2.20
2019-04-27T02:39:40.130Z,2.52
2019-04-27T02:42:13.863Z,2.20
2019-04-27T02:44:49.390Z,2.33
2019-04-27T02:47:23.324Z,2.30
2019-04-27T02:49:57.106Z,2.15
2019-04-27T02:52:40.472Z,1.98
2019-04-27T02:55:14.542Z,2.30
2019-04-27T02:57:50.037Z,2.02
2019-04-27T03:00:24.145Z,2.55
2019-04-27T03:03:02.312Z,2.10
2019-04-27T03:05:36.329Z,2.20
2019-04-27T03:08:10.509Z,2.12
2019-04-27T03:10:44.381Z,2.20
2019-04-27T03:13:31.372Z,2.20
2019-04-27T03:16:31.832Z,2.10
2019-04-27T03:19:29.861Z,2.05
2019-04-27T03:22:19.440Z,2.20
2019-04-27T03:25:07.060Z,2.30
2019-04-27T03:27:42.096Z,2.20
2019-04-27T03:30:16.674Z,2.42
2019-04-27T03:32:55.472Z,2.37
2019-04-27T03:35:25.714Z,2.25
2019-04-27T03:38:00.542Z,2.10
2019-04-27T03:40:34.774Z,2.45
2019-04-27T03:43:21.473Z,2.33
2019-04-27T03:45:55.493Z,2.60
2019-04-27T03:48:29.666Z,2.20
2019-04-27T03:51:40.038Z,2.12
2019-04-27T03:54:30.690Z,2.08
2019-04-27T03:57:13.335Z,2.50
2019-04-27T04:00:00.942Z,2.08
2019-04-27T04:02:34.768Z,2.37
2019-04-27T04:05:09.877Z,2.22
2019-04-27T04:07:43.884Z,2.20
2019-04-27T04:10:20.045Z,2.00
2019-04-27T04:13:02.225Z,2.45
2019-04-27T04:16:00.007Z,2.52
2019-04-27T04:18:51.891Z,2.30
2019-04-27T04:21:25.625Z,2.60
2019-04-27T04:24:00.919Z,2.30
2019-04-27T04:26:35.152Z,2.27
2019-04-27T04:29:10.267Z,2.40
2019-04-27T04:31:44.692Z,2.60
2019-04-27T04:34:19.737Z,2.15
2019-04-27T04:36:53.777Z,2.50
2019-04-27T04:39:29.634Z,2.20
2019-04-27T04:42:30.007Z,2.40
2019-04-27T04:45:25.296Z,2.37
2019-04-27T04:48:11.990Z,2.87
2019-04-27T04:50:45.688Z,2.70
2019-04-27T04:53:20.610Z,2.67
2019-04-27T04:55:54.603Z,2.35
2019-04-27T04:58:29.431Z,2.37
2019-04-27T05:01:03.329Z,2.40
2019-04-27T05:03:38.776Z,2.77
2019-04-27T05:06:12.616Z,2.52
2019-04-27T05:08:46.356Z,2.58
2019-04-27T05:11:20.158Z,2.47
2019-04-27T05:13:53.929Z,2.25
2019-04-27T05:16:28.646Z,2.20
2019-04-27T05:19:02.487Z,2.40
2019-04-27T05:21:36.349Z,2.50
2019-04-27T05:24:09.949Z,2.40
2019-04-27T05:26:43.692Z,2.87
2019-04-27T05:29:18.934Z,2.30
2019-04-27T05:31:52.864Z,2.40
2019-04-27T05:34:26.716Z,2.50
2019-04-27T05:37:01.138Z,2.62
2019-04-27T05:39:35.023Z,2.60
2019-04-27T05:42:12.442Z,2.65
2019-04-27T05:45:20.039Z,2.80
2019-04-27T05:48:09.398Z,2.42
2019-04-27T05:50:45.650Z,2.50
2019-04-27T05:53:18.934Z,2.42
2019-04-27T05:55:53.006Z,2.42
2019-04-27T05:58:26.692Z,2.60
2019-04-27T06:01:00.510Z,2.47
2019-04-27T06:03:34.262Z,2.50
2019-04-27T06:06:09.697Z,2.70
2019-04-27T06:08:43.274Z,2.35
2019-04-27T06:11:17.071Z,2.87
2019-04-27T06:13:50.817Z,3.00
2019-04-27T06:16:24.562Z,3.17
2019-04-27T06:18:59.457Z,2.92
2019-04-27T06:21:33.190Z,2.67
2019-04-27T06:24:08.720Z,3.15
2019-04-27T06:26:42.556Z,2.90
2019-04-27T06:29:16.269Z,2.62
2019-04-27T06:31:50.113Z,2.80
2019-04-27T06:34:23.912Z,3.00
2019-04-27T06:36:57.682Z,2.80
2019-04-27T06:39:32.300Z,2.83
2019-04-27T06:42:16.035Z,2.60
2019-04-27T06:44:42.067Z,2.98
2019-04-27T06:47:15.955Z,3.17
2019-04-27T06:49:49.694Z,2.72
2019-04-27T06:52:23.567Z,2.77
2019-04-27T06:54:57.327Z,2.90
2019-04-27T06:57:34.089Z,3.00
2019-04-27T07:00:09.060Z,3.33
2019-04-27T07:02:42.989Z,2.55
2019-04-27T07:05:18.516Z,2.60
2019-04-27T07:07:52.533Z,3.33
2019-04-27T07:10:26.262Z,2.83
2019-04-27T07:13:01.838Z,2.80
2019-04-27T07:15:35.651Z,2.62
2019-04-27T07:18:09.771Z,2.65
2019-04-27T07:20:43.424Z,2.95
2019-04-27T07:23:18.650Z,2.75
2019-04-27T07:25:52.877Z,3.00
2019-04-27T07:28:26.499Z,2.70
2019-04-27T07:31:00.472Z,2.60
2019-04-27T07:33:34.190Z,2.70
2019-04-27T07:36:08.958Z,2.70
2019-04-27T07:38:42.939Z,2.50
2019-04-27T07:41:16.587Z,2.80
2019-04-27T07:44:02.422Z,2.92
2019-04-27T07:46:36.209Z,2.70
2019-04-27T07:49:09.854Z,2.50
2019-04-27T07:51:43.826Z,2.95
2019-04-27T07:54:18.937Z,2.87
2019-04-27T07:56:52.941Z,2.42
2019-04-27T07:59:26.643Z,2.85
2019-04-27T08:02:00.381Z,2.62
2019-04-27T08:04:34.335Z,2.72
2019-04-27T08:07:09.183Z,2.70
2019-04-27T08:09:43.268Z,2.60
2019-04-27T08:12:18.539Z,2.72
2019-04-27T08:14:52.701Z,2.80
2019-04-27T08:17:26.417Z,2.80
2019-04-27T08:20:00.150Z,2.80
2019-04-27T08:22:34.058Z,2.80
2019-04-27T08:25:09.431Z,2.90
2019-04-27T08:27:50.485Z,2.70
2019-04-27T08:30:41.038Z,2.67
2019-04-27T08:33:15.139Z,2.77
2019-04-27T08:35:49.126Z,2.72
2019-04-27T08:38:22.866Z,2.60
2019-04-27T08:40:56.630Z,2.98
2019-04-27T08:43:30.457Z,2.80
2019-04-27T08:46:04.309Z,2.67
2019-04-27T08:48:39.275Z,2.90
2019-04-27T08:51:13.289Z,2.55
2019-04-27T08:53:46.920Z,3.00
2019-04-27T08:56:20.663Z,2.75
2019-04-27T08:58:54.454Z,2.77
2019-04-27T09:01:29.915Z,2.62
2019-04-27T09:04:03.791Z,2.80
2019-04-27T09:06:39.897Z,3.02
2019-04-27T09:09:21.138Z,2.70
2019-04-27T09:12:19.697Z,2.75
2019-04-27T09:14:59.217Z,2.60
2019-04-27T09:17:42.564Z,2.70
2019-04-27T09:20:23.671Z,2.40
2019-04-27T09:22:59.156Z,2.60
2019-04-27T09:25:32.932Z,3.00
2019-04-27T09:28:06.533Z,3.22
2019-04-27T09:30:40.392Z,2.87
2019-04-27T09:33:14.168Z,3.17
2019-04-27T09:35:48.063Z,2.83
2019-04-27T09:38:22.011Z,2.90
2019-04-27T09:40:58.026Z,3.00
2019-04-27T09:43:33.534Z,3.30
2019-04-27T09:46:08.342Z,2.80
2019-04-27T09:48:42.006Z,3.00
2019-04-27T09:51:16.309Z,3.00
2019-04-27T09:53:50.064Z,3.05
2019-04-27T09:56:23.895Z,2.60
2019-04-27T09:58:57.774Z,2.90
2019-04-27T10:01:31.612Z,2.85
2019-04-27T10:04:05.384Z,2.83
2019-04-27T10:06:39.137Z,2.75
2019-04-27T10:09:15.903Z,2.77
2019-04-27T10:11:49.716Z,2.70
2019-04-27T10:14:23.451Z,2.75
2019-04-27T10:16:57.410Z,2.83
2019-04-27T10:19:33.160Z,2.75
2019-04-27T10:22:07.080Z,2.55
2019-04-27T10:24:40.905Z,2.70
2019-04-27T10:27:16.100Z,2.70
2019-04-27T10:29:50.037Z,2.52
2019-04-27T10:32:23.996Z,2.60
2019-04-27T10:34:57.750Z,3.02
2019-04-27T10:37:31.806Z,2.92
2019-04-27T10:40:06.157Z,3.10
2019-04-27T10:42:39.928Z,3.00
2019-04-27T10:45:15.615Z,2.80
2019-04-27T10:47:49.671Z,2.70
2019-04-27T10:50:23.636Z,2.77
2019-04-27T10:52:59.364Z,2.70
2019-04-27T10:55:32.940Z,2.80
2019-04-27T10:58:06.663Z,2.60
2019-04-27T11:00:46.123Z,2.70
2019-04-27T11:03:38.804Z,3.27
2019-04-27T11:06:30.658Z,3.60
2019-04-27T11:09:08.896Z,5.17
2019-04-27T11:11:42.870Z,4.55
2019-04-27T11:14:16.617Z,4.10
2019-04-27T11:16:50.630Z,3.30
2019-04-27T11:19:24.355Z,4.50
2019-04-27T11:21:57.987Z,4.05
2019-04-27T11:24:31.705Z,4.45
2019-04-27T11:27:05.845Z,4.50
2019-04-27T11:29:39.736Z,4.50
2019-04-27T11:32:13.661Z,4.58
2019-04-27T11:35:18.468Z,4.55
2019-04-27T11:37:55.601Z,4.40
2019-04-27T11:40:29.624Z,4.97
2019-04-27T11:43:03.424Z,4.62
2019-04-27T11:45:37.744Z,4.53
2019-04-27T11:48:11.851Z,4.33
2019-04-27T11:50:45.992Z,4.35
2019-04-27T11:53:23.064Z,4.75
2019-04-27T11:55:55.233Z,4.50
2019-04-27T11:58:28.885Z,4.10
2019-04-27T12:01:03.189Z,4.03
2019-04-27T12:03:37.244Z,3.42
2019-04-27T12:06:10.960Z,3.80
2019-04-27T12:08:45.791Z,3.75
2019-04-27T12:11:19.691Z,3.50
2019-04-27T12:13:53.413Z,3.10
2019-04-27T12:16:27.744Z,3.70
2019-04-27T12:19:02.535Z,3.17
2019-04-27T12:21:36.310Z,3.58
2019-04-27T12:24:10.166Z,3.55
2019-04-27T12:27:01.253Z,3.58
2019-04-27T12:29:52.620Z,3.77
2019-04-27T12:32:27.328Z,3.90
2019-04-27T12:35:01.049Z,3.72
2019-04-27T12:37:35.723Z,3.60
2019-04-27T12:40:09.543Z,3.45
2019-04-27T12:42:44.313Z,3.60
2019-04-27T12:45:18.421Z,3.77
2019-04-27T12:47:52.489Z,3.87
2019-04-27T12:50:26.571Z,3.50
2019-04-27T12:53:03.186Z,3.30
2019-04-27T12:55:58.608Z,3.60
2019-04-27T12:58:41.241Z,3.40
2019-04-27T13:01:16.692Z,3.67
2019-04-27T13:03:50.287Z,3.70
2019-04-27T13:06:24.143Z,3.55
2019-04-27T13:08:57.956Z,3.30
2019-04-27T13:11:32.004Z,3.20
2019-04-27T13:14:06.244Z,3.80
2019-04-27T13:16:40.071Z,3.55
2019-04-27T13:19:15.716Z,3.70
2019-04-27T13:21:49.300Z,3.52
2019-04-27T13:24:23.124Z,4.03
2019-04-27T13:26:56.853Z,3.80
2019-04-27T13:29:30.544Z,3.22
2019-04-27T13:32:05.956Z,3.65
2019-04-27T13:34:39.632Z,3.10
2019-04-27T13:37:34.307Z,7.50
2019-04-27T13:40:11.905Z,6.90
2019-04-27T13:42:57.545Z,6.45
2019-04-27T13:45:53.464Z,8.45
2019-04-27T13:49:01.276Z,9.13
2019-04-27T13:51:49.418Z,8.15
2019-04-27T13:54:26.460Z,7.78
2019-04-27T13:56:58.875Z,7.40
2019-04-27T13:59:33.035Z,6.75
2019-04-27T14:02:07.141Z,6.92
2019-04-27T14:04:40.830Z,6.30
2019-04-27T14:07:14.818Z,6.05
2019-04-27T14:09:50.451Z,6.40
2019-04-27T14:12:24.422Z,6.30
2019-04-27T14:14:59.083Z,6.37
2019-04-27T14:17:33.281Z,6.05
2019-04-27T14:20:08.005Z,5.92
2019-04-27T14:22:43.106Z,6.12
2019-04-27T14:25:18.159Z,6.37
2019-04-27T14:27:52.808Z,6.17
2019-04-27T14:30:26.572Z,5.90
2019-04-27T14:33:00.212Z,5.70
2019-04-27T14:35:33.957Z,5.55
2019-04-27T14:38:09.130Z,5.30
2019-04-27T14:40:43.006Z,6.00
2019-04-27T14:43:16.651Z,5.78
2019-04-27T14:45:50.498Z,5.67
2019-04-27T14:48:24.265Z,6.08
2019-04-27T14:50:59.061Z,5.50
2019-04-27T14:53:32.838Z,5.47
2019-04-27T14:56:06.529Z,5.70
2019-04-27T14:58:40.372Z,5.00
2019-04-27T15:01:14.129Z,5.20
2019-04-27T15:03:47.797Z,5.03
2019-04-27T15:06:22.159Z,5.87
2019-04-27T15:08:56.070Z,5.25
2019-04-27T15:11:31.604Z,5.10
2019-04-27T15:14:05.418Z,4.92
2019-04-27T15:16:42.679Z,5.33
2019-04-27T15:19:23.386Z,4.97
2019-04-27T15:21:58.886Z,5.15
2019-04-27T15:24:32.526Z,5.30
2019-04-27T15:27:08.117Z,5.25
2019-04-27T15:29:41.802Z,5.15
2019-04-27T15:32:23.238Z,5.47
2019-04-27T15:35:06.126Z,5.67
2019-04-27T15:37:45.127Z,4.75
2019-04-27T15:40:33.146Z,4.87
2019-04-27T15:43:27.319Z,5.35
2019-04-27T15:46:01.356Z,5.15
2019-04-27T15:48:35.210Z,5.40
2019-04-27T15:51:14.665Z,5.47
2019-04-27T15:53:45.870Z,5.60
2019-04-27T15:56:21.716Z,4.87
2019-04-27T15:58:59.616Z,4.60
2019-04-27T16:01:35.741Z,5.55
2019-04-27T16:04:11.193Z,5.22
2019-04-27T16:06:47.511Z,4.83
2019-04-27T16:09:24.347Z,5.40
2019-04-27T16:12:06.743Z,5.12
2019-04-27T16:14:30.841Z,4.97
2019-04-27T16:17:08.070Z,5.33
2019-04-27T16:19:46.421Z,5.20
2019-04-27T16:22:15.594Z,5.20
2019-04-27T16:24:53.142Z,5.40
2019-04-27T16:27:25.827Z,5.10
2019-04-27T16:30:09.727Z,4.83
2019-04-27T16:32:35.907Z,5.00
2019-04-27T16:35:13.933Z,5.10
2019-04-27T16:38:03.077Z,5.58
2019-04-27T16:40:38.908Z,5.25
2019-04-27T16:43:13.354Z,5.17
2019-04-27T16:45:48.598Z,5.47
2019-04-27T16:48:22.411Z,5.65
2019-04-27T16:50:59.359Z,5.08
2019-04-27T16:53:39.508Z,4.95
2019-04-27T16:56:14.269Z,5.45
2019-04-27T16:58:42.974Z,4.87
2019-04-27T17:01:25.290Z,5.12
2019-04-27T17:03:59.539Z,5.92
2019-04-27T17:06:33.441Z,4.87
2019-04-27T17:09:11.350Z,5.17
2019-04-27T17:11:50.010Z,5.62
2019-04-27T17:14:35.227Z,5.42
2019-04-27T17:17:32.899Z,5.53
2019-04-27T17:20:08.535Z,5.42
2019-04-27T17:22:45.637Z,5.17
2019-04-27T17:25:21.732Z,5.08
2019-04-27T17:28:04.008Z,5.50
2019-04-27T17:30:39.856Z,5.30
2019-04-27T17:33:21.170Z,5.20
2019-04-27T17:35:55.036Z,5.17
2019-04-27T17:38:30.419Z,5.10
2019-04-27T17:41:08.536Z,5.28
2019-04-27T17:43:41.551Z,5.80
2019-04-27T17:46:15.651Z,5.60
2019-04-27T17:48:49.414Z,5.60
2019-04-27T17:51:23.028Z,5.60
2019-04-27T17:53:58.474Z,5.08
2019-04-27T17:56:35.896Z,5.25
2019-04-27T17:59:10.292Z,5.15
2019-04-27T18:01:43.190Z,5.45
2019-04-27T18:04:18.527Z,5.08
2019-04-27T18:06:55.563Z,5.22
2019-04-27T18:09:29.222Z,5.28
2019-04-27T18:12:02.913Z,5.00
2019-04-27T18:14:41.157Z,4.85
2019-04-27T18:17:13.664Z,5.53
2019-04-27T18:19:51.301Z,5.08
2019-04-27T18:22:24.997Z,5.30
2019-04-27T18:25:06.549Z,4.95
2019-04-27T18:27:58.942Z,5.28
2019-04-27T18:30:54.585Z,5.20
2019-04-27T18:33:28.440Z,5.20
2019-04-27T18:36:05.446Z,5.78
2019-04-27T18:38:39.218Z,5.60
2019-04-27T18:41:13.119Z,5.12
2019-04-27T18:43:52.114Z,5.28
2019-04-27T18:46:24.773Z,5.58
2019-04-27T18:49:14.722Z,5.33
2019-04-27T18:52:04.273Z,5.22
2019-04-27T18:54:41.889Z,5.22
2019-04-27T18:57:15.137Z,5.30
2019-04-27T18:59:49.225Z,5.50
2019-04-27T19:02:23.033Z,5.28
2019-04-27T19:04:58.174Z,5.20
2019-04-27T19:07:32.120Z,4.83
2019-04-27T19:10:06.310Z,5.42
2019-04-27T19:12:40.378Z,5.58
2019-04-27T19:15:14.849Z,5.58
2019-04-27T19:17:49.075Z,5.00
2019-04-27T19:20:23.032Z,5.22
2019-04-27T19:22:56.907Z,4.80
2019-04-27T19:25:45.678Z,5.00
2019-04-27T19:28:48.135Z,5.20
2019-04-27T19:31:29.003Z,5.30
2019-04-27T19:34:02.861Z,5.50
2019-04-27T19:36:38.712Z,4.78
2019-04-27T19:39:13.982Z,5.10
2019-04-27T19:41:59.515Z,5.55
2019-04-27T19:44:23.494Z,5.00
2019-04-27T19:46:57.221Z,5.28
2019-04-27T19:49:31.753Z,5.45
2019-04-27T19:52:05.722Z,5.10
2019-04-27T19:54:39.914Z,5.28
2019-04-27T19:57:13.795Z,5.50
2019-04-27T19:59:54.929Z,5.53
2019-04-27T20:02:30.363Z,5.37
2019-04-27T20:05:07.400Z,5.17
2019-04-27T20:07:41.145Z,5.35
2019-04-27T20:10:15.071Z,5.70
2019-04-27T20:12:48.703Z,5.30
2019-04-27T20:15:22.951Z,5.53
2019-04-27T20:17:58.521Z,5.20
2019-04-27T20:20:32.312Z,5.08
2019-04-27T20:23:06.125Z,5.78
2019-04-27T20:25:41.242Z,5.80
2019-04-27T20:28:16.435Z,5.78
2019-04-27T20:30:51.851Z,5.12
2019-04-27T20:33:27.248Z,5.33
2019-04-27T20:36:01.140Z,5.20
2019-04-27T20:38:36.898Z,5.92
2019-04-27T20:41:11.590Z,5.95
2019-04-27T20:43:45.512Z,5.60
2019-04-27T20:46:22.481Z,6.08
2019-04-27T20:48:54.615Z,6.00
2019-04-27T20:51:50.425Z,5.90
2019-04-27T20:54:22.258Z,5.83
2019-04-27T20:56:57.322Z,5.87
2019-04-27T20:59:31.295Z,6.00
2019-04-27T21:02:24.097Z,5.92
2019-04-27T21:05:05.813Z,6.28
2019-04-27T21:07:46.430Z,6.80
2019-04-27T21:10:20.207Z,6.25
2019-04-27T21:12:53.920Z,6.67
2019-04-27T21:15:27.886Z,6.58
2019-04-27T21:18:01.929Z,6.03
2019-04-27T21:20:35.691Z,6.70
2019-04-27T21:23:09.450Z,6.60
2019-04-27T21:25:43.264Z,6.95
2019-04-27T21:28:19.041Z,7.75
2019-04-27T21:30:54.140Z,6.65
2019-04-27T21:33:28.048Z,6.83
2019-04-27T21:36:01.696Z,6.45
2019-04-27T21:38:35.406Z,7.00
2019-04-27T21:41:09.206Z,7.08
2019-04-27T21:43:43.781Z,7.20
2019-04-27T21:46:17.530Z,7.20
2019-04-27T21:48:51.385Z,7.62
2019-04-27T21:51:25.226Z,7.40
2019-04-27T21:54:17.316Z,7.12
2019-04-27T21:56:51.817Z,7.75
2019-04-27T21:59:25.638Z,7.05
2019-04-27T22:02:02.271Z,8.28
2019-04-27T22:04:36.098Z,7.58
2019-04-27T22:07:11.548Z,7.00
2019-04-27T22:09:45.500Z,7.33
2019-04-27T22:12:21.213Z,8.18
2019-04-27T22:14:54.889Z,7.83
2019-04-27T22:17:29.845Z,8.43
2019-04-27T22:20:05.548Z,7.58
2019-04-27T22:22:44.028Z,7.67
2019-04-27T22:25:19.028Z,7.58
2019-04-27T22:27:52.966Z,7.50
2019-04-27T22:30:26.828Z,8.38
2019-04-27T22:33:01.433Z,8.08
2019-04-27T22:35:35.174Z,8.13
2019-04-27T22:38:08.946Z,7.58
2019-04-27T22:40:54.046Z,7.78
2019-04-27T22:43:45.019Z,8.25
2019-04-27T22:46:21.781Z,8.33
2019-04-27T22:48:55.461Z,8.38
2019-04-27T22:51:29.109Z,8.40
2019-04-27T22:54:02.880Z,8.18
2019-04-27T22:56:37.353Z,7.58
2019-04-27T22:59:25.137Z,7.67
2019-04-27T23:02:16.268Z,8.00
2019-04-27T23:04:55.710Z,7.85
2019-04-27T23:07:31.447Z,8.08
2019-04-27T23:10:06.861Z,7.62
2019-04-27T23:12:41.926Z,8.53
2019-04-27T23:15:19.497Z,7.40
2019-04-27T23:17:55.094Z,8.08
2019-04-27T23:20:28.746Z,8.43
2019-04-27T23:23:03.148Z,8.98
2019-04-27T23:25:36.840Z,8.33
2019-04-27T23:28:10.752Z,8.00
2019-04-27T23:31:10.814Z,7.78
2019-04-27T23:33:47.566Z,8.68
2019-04-27T23:36:21.687Z,8.43
2019-04-27T23:38:55.554Z,8.45
2019-04-27T23:41:29.288Z,8.20
2019-04-27T23:44:03.092Z,7.90
2019-04-27T23:46:36.894Z,8.63
2019-04-27T23:49:12.157Z,8.55
2019-04-27T23:51:53.901Z,8.33
2019-04-27T23:54:27.500Z,8.78
2019-04-27T23:57:01.858Z,8.73
2019-04-27T23:59:36.017Z,8.48
